Corinthiakos — A8UL2 — position and weather

sailwx.info

Track history (hours):
 
Tides and Currents Weather Stations Pressure Air Temp Water Temp Dewpoint Dewpoint Depression Visibility Wind Speed Wind Dir Waves Ship Positions

Corinthiakos

Last reported at 2017-Mar-20 05:31 UTC. Time now 2017-Mar-26 12:50 UTC.
Position N 01°52' E 102°27'.

Length 262 m; draft 11.7 m.

Type: Cargo ship. MMSI: 636014516.

Date/timePositionNaut miles runAvg speedWind from/ knotsBaromVisibWave heightAir tempDewpointWater temp
2017-Mar-20 05:31N 01°52' E 102°27'1717.7
2017-Mar-20 04:33N 01°45' E 102°42'5719.2
2017-Mar-20 01:34N 01°13' E 103°30'1615.8
2017-Mar-20 00:34N 01°09' E 103°45'9 8.6
2017-Mar-19 23:33N 01°15' E 103°51'1 0.8
2017-Mar-19 22:31N 01°16' E 103°51'0 0.0
2017-Mar-19 21:31N 01°16' E 103°51'0 0.1
2017-Mar-19 20:33N 01°16' E 103°51'0 0.1
2017-Mar-19 19:32N 01°16' E 103°51'0 0.0
2017-Mar-19 18:31N 01°16' E 103°51'0 0.0
2017-Mar-19 17:28N 01°16' E 103°51'0 0.0
2017-Mar-19 16:31N 01°16' E 103°51'0 0.0
2017-Mar-19 15:32N 01°16' E 103°51'0 0.0
2017-Mar-19 14:34N 01°16' E 103°51'0 0.0
2017-Mar-19 13:31N 01°16' E 103°51'0 0.1
2017-Mar-19 12:33N 01°16' E 103°51'3 3.3
2017-Mar-19 11:33N 01°14' E 103°54'1211.8
2017-Mar-19 10:33N 01°16' E 104°05'  
2017-Mar-13 20:34N 22°30' E 119°52'1918.5
2017-Mar-13 19:33N 22°33' E 120°12'6 6.3
2017-Mar-13 18:33N 22°34' E 120°19'1 0.5
2017-Mar-13 17:32N 22°35' E 120°18'0 0.0
2017-Mar-13 16:33N 22°35' E 120°18'0 0.0
2017-Mar-13 15:33N 22°35' E 120°18'0 0.0
2017-Mar-13 14:32N 22°35' E 120°18'0 0.0
2017-Mar-13 13:33N 22°35' E 120°18'0 0.0
2017-Mar-13 12:31N 22°35' E 120°18'0 0.0
2017-Mar-13 11:30N 22°35' E 120°18'0 0.0
2017-Mar-13 10:29N 22°35' E 120°18'0 0.0
2017-Mar-13 09:32N 22°35' E 120°18'0 0.0
2017-Mar-13 08:33N 22°35' E 120°18'0 0.1
2017-Mar-13 07:29N 22°35' E 120°18'0 0.1
2017-Mar-13 06:33N 22°35' E 120°18'0 0.0
2017-Mar-13 05:32N 22°35' E 120°18'0 0.0
2017-Mar-13 04:33N 22°35' E 120°18'0 0.0
2017-Mar-13 03:29N 22°35' E 120°18'0 0.0
2017-Mar-13 02:32N 22°35' E 120°18'0 0.0
2017-Mar-13 01:32N 22°35' E 120°18'0 0.0
2017-Mar-13 00:33N 22°35' E 120°18'0 0.0
2017-Mar-12 23:33N 22°35' E 120°18'0 0.1
2017-Mar-12 22:31N 22°35' E 120°18'0 0.1
2017-Mar-12 21:33N 22°35' E 120°18'0 0.0
2017-Mar-12 20:31N 22°35' E 120°18'0 0.0
2017-Mar-12 19:31N 22°35' E 120°18'0 0.0
2017-Mar-12 18:33N 22°35' E 120°18'0 0.1
2017-Mar-12 17:32N 22°35' E 120°18'0 0.1
2017-Mar-12 16:33N 22°35' E 120°18'1 1.0
2017-Mar-12 15:34N 22°34' E 120°19'9 9.3
2017-Mar-12 14:33N 22°31' E 120°09'1817.8
2017-Mar-12 13:33N 22°27' E 119°51'  
Track history (hours):
 
Tides and Currents Weather Stations Pressure Air Temp Water Temp Dewpoint Dewpoint Depression Visibility Wind Speed Wind Dir Waves Ship Positions

Corinthiakos

Last reported at 2017-Mar-20 05:31 UTC. Time now 2017-Mar-26 12:50 UTC.
Position N 01°52' E 102°27'.

Length 262 m; draft 11.7 m.

Type: Cargo ship. MMSI: 636014516.

Date/timePositionNaut miles runAvg speedWind from/ knotsBaromVisibWave heightAir tempDewpointWater temp
2017-Mar-20 05:31N 01°52' E 102°27'1717.7
2017-Mar-20 04:33N 01°45' E 102°42'5719.2
2017-Mar-20 01:34N 01°13' E 103°30'1615.8
2017-Mar-20 00:34N 01°09' E 103°45'9 8.6
2017-Mar-19 23:33N 01°15' E 103°51'1 0.8
2017-Mar-19 22:31N 01°16' E 103°51'0 0.0
2017-Mar-19 21:31N 01°16' E 103°51'0 0.1
2017-Mar-19 20:33N 01°16' E 103°51'0 0.1
2017-Mar-19 19:32N 01°16' E 103°51'0 0.0
2017-Mar-19 18:31N 01°16' E 103°51'0 0.0
2017-Mar-19 17:28N 01°16' E 103°51'0 0.0
2017-Mar-19 16:31N 01°16' E 103°51'0 0.0
2017-Mar-19 15:32N 01°16' E 103°51'0 0.0
2017-Mar-19 14:34N 01°16' E 103°51'0 0.0
2017-Mar-19 13:31N 01°16' E 103°51'0 0.1
2017-Mar-19 12:33N 01°16' E 103°51'3 3.3
2017-Mar-19 11:33N 01°14' E 103°54'1211.8
2017-Mar-19 10:33N 01°16' E 104°05'  
2017-Mar-13 20:34N 22°30' E 119°52'1918.5
2017-Mar-13 19:33N 22°33' E 120°12'6 6.3
2017-Mar-13 18:33N 22°34' E 120°19'1 0.5
2017-Mar-13 17:32N 22°35' E 120°18'0 0.0
2017-Mar-13 16:33N 22°35' E 120°18'0 0.0
2017-Mar-13 15:33N 22°35' E 120°18'0 0.0
2017-Mar-13 14:32N 22°35' E 120°18'0 0.0
2017-Mar-13 13:33N 22°35' E 120°18'0 0.0
2017-Mar-13 12:31N 22°35' E 120°18'0 0.0
2017-Mar-13 11:30N 22°35' E 120°18'0 0.0
2017-Mar-13 10:29N 22°35' E 120°18'0 0.0
2017-Mar-13 09:32N 22°35' E 120°18'0 0.0
2017-Mar-13 08:33N 22°35' E 120°18'0 0.1
2017-Mar-13 07:29N 22°35' E 120°18'0 0.1
2017-Mar-13 06:33N 22°35' E 120°18'0 0.0
2017-Mar-13 05:32N 22°35' E 120°18'0 0.0
2017-Mar-13 04:33N 22°35' E 120°18'0 0.0
2017-Mar-13 03:29N 22°35' E 120°18'0 0.0
2017-Mar-13 02:32N 22°35' E 120°18'0 0.0
2017-Mar-13 01:32N 22°35' E 120°18'0 0.0
2017-Mar-13 00:33N 22°35' E 120°18'0 0.0
2017-Mar-12 23:33N 22°35' E 120°18'0 0.1
2017-Mar-12 22:31N 22°35' E 120°18'0 0.1
2017-Mar-12 21:33N 22°35' E 120°18'0 0.0
2017-Mar-12 20:31N 22°35' E 120°18'0 0.0
2017-Mar-12 19:31N 22°35' E 120°18'0 0.0
2017-Mar-12 18:33N 22°35' E 120°18'0 0.1
2017-Mar-12 17:32N 22°35' E 120°18'0 0.1
2017-Mar-12 16:33N 22°35' E 120°18'1 1.0
2017-Mar-12 15:34N 22°34' E 120°19'9 9.3
2017-Mar-12 14:33N 22°31' E 120°09'1817.8
2017-Mar-12 13:33N 22°27' E 119°51'  

Dump ship's entire track history